Running Springs, California
Current Conditions -  °F | °C
As of 5:35 PM on Tuesday 25 Nov 2014 (Local Time) from KL35 Reporting Station
Clear Clear  
Wind Chill: 45°   Ceiling: Unl
Heat Index: 45°   Visibility: 10mi
Dew Point: 10°   Wind: 0mph
Humidity: 25%   Direction: NA
Pressure: 30.51"   Gusts: NA
Location:  34.21°N, 117.11°W
Report Text: KL35 260135Z AUTO 00000KT 10SM CLR 07/M12 A3051 RMK AO2
Loading
Personal Weather Stations






























Interactive Weather Map New forecast layout! Learn more

10-Day Weather Forecast

Advertisements
Track Severe Weather on mobile